KLM22R EHRD-EDDM
Flight info
| Callsign | KLM22R |
|---|---|
| Flight time | 1h 7m |
| Altitude | 35000 |
| Route | LUNIX Z739 MISGO DCT DOJOH DCT DODEN DCT TABUM DCT HAREM T104 ROKIL ROKIL1B |
| Aircraft | E190/M-SDE3GILORVW/S |
Departure
| Time | 2026-05-07 16:02 |
|---|---|
| Airport | Rotterdam The Hague Airport (EHRD) |
Arrival
| Time | 2026-05-07 17:10 |
|---|---|
| Airport | Munich Airport (EDDM) |
| Time | Latitude | Longitude | Altitude | Speed | Heading |
|---|---|---|---|---|---|
| 2026-05-07 15:48 | 51.95068 | 4.43371 | 0 ft | 0 kts | 329° |
| 2026-05-07 15:58 | 51.95069 | 4.43370 | -1 ft | 2 kts | 329° |
| 2026-05-07 15:58 | 51.95096 | 4.43351 | -1 ft | 6 kts | 353° |
| 2026-05-07 15:58 | 51.95123 | 4.43390 | -1 ft | 5 kts | 57° |
| 2026-05-07 15:59 | 51.95146 | 4.43447 | -1 ft | 7 kts | 57° |
| 2026-05-07 15:59 | 51.95170 | 4.43486 | -1 ft | 5 kts | 32° |
| 2026-05-07 15:59 | 51.95204 | 4.43479 | -1 ft | 6 kts | 328° |
| 2026-05-07 15:59 | 51.95240 | 4.43417 | -1 ft | 9 kts | 281° |
| 2026-05-07 16:00 | 51.95209 | 4.43319 | -1 ft | 11 kts | 236° |
| 2026-05-07 16:00 | 51.95161 | 4.43194 | -1 ft | 15 kts | 242° |
| 2026-05-07 16:00 | 51.95113 | 4.43032 | 0 ft | 17 kts | 248° |
| 2026-05-07 16:00 | 51.95153 | 4.42906 | 0 ft | 14 kts | 328° |
| 2026-05-07 16:01 | 51.95223 | 4.42866 | 1 ft | 8 kts | 28° |
| 2026-05-07 16:01 | 51.95237 | 4.42897 | 1 ft | 0 kts | 56° |
| 2026-05-07 16:01 | 51.95238 | 4.42899 | 1 ft | 5 kts | 56° |
| 2026-05-07 16:01 | 51.95399 | 4.43297 | -2 ft | 79 kts | 57° |
| 2026-05-07 16:02 | 51.95829 | 4.44351 | -2 ft | 142 kts | 57° |
| 2026-05-07 16:02 | 51.96374 | 4.45906 | 309 ft | 168 kts | 57° |
| 2026-05-07 16:02 | 51.97009 | 4.47575 | 1008 ft | 178 kts | 57° |
| 2026-05-07 16:02 | 51.97695 | 4.49320 | 1710 ft | 191 kts | 58° |
| 2026-05-07 16:03 | 51.98423 | 4.51241 | 2383 ft | 209 kts | 60° |
| 2026-05-07 16:03 | 51.99204 | 4.53260 | 3345 ft | 212 kts | 59° |
| 2026-05-07 16:03 | 51.99955 | 4.55437 | 3968 ft | 230 kts | 67° |
| 2026-05-07 16:03 | 52.00798 | 4.57665 | 4839 ft | 234 kts | 50° |
| 2026-05-07 16:04 | 52.01628 | 4.58791 | 5439 ft | 235 kts | 37° |
| 2026-05-07 16:04 | 52.03547 | 4.60503 | 6538 ft | 242 kts | 26° |
| 2026-05-07 16:04 | 52.05095 | 4.61645 | 7332 ft | 244 kts | 32° |
| 2026-05-07 16:04 | 52.06420 | 4.63281 | 8462 ft | 233 kts | 43° |
| 2026-05-07 16:05 | 52.07622 | 4.65114 | 9395 ft | 238 kts | 47° |
| 2026-05-07 16:05 | 52.08378 | 4.66426 | 9995 ft | 241 kts | 49° |
| 2026-05-07 16:05 | 52.09493 | 4.68488 | 10810 ft | 245 kts | 50° |
| 2026-05-07 16:05 | 52.10634 | 4.70576 | 11584 ft | 250 kts | 49° |
| 2026-05-07 16:06 | 52.11844 | 4.72694 | 12362 ft | 261 kts | 47° |
| 2026-05-07 16:06 | 52.13192 | 4.74985 | 12610 ft | 300 kts | 46° |
| 2026-05-07 16:06 | 52.14718 | 4.77560 | 12986 ft | 331 kts | 49° |
| 2026-05-07 16:06 | 52.15913 | 4.80814 | 13935 ft | 338 kts | 71° |
| 2026-05-07 16:07 | 52.16379 | 4.84585 | 14969 ft | 342 kts | 95° |
| 2026-05-07 16:07 | 52.15794 | 4.88321 | 16038 ft | 342 kts | 115° |
| 2026-05-07 16:07 | 52.14763 | 4.91840 | 17027 ft | 347 kts | 118° |
| 2026-05-07 16:07 | 52.13706 | 4.95334 | 17869 ft | 351 kts | 116° |
| 2026-05-07 16:08 | 52.12730 | 4.99076 | 18530 ft | 358 kts | 112° |
| 2026-05-07 16:08 | 52.11878 | 5.02855 | 19206 ft | 362 kts | 111° |
| 2026-05-07 16:08 | 52.11048 | 5.06748 | 19919 ft | 365 kts | 110° |
| 2026-05-07 16:08 | 52.10195 | 5.10653 | 20611 ft | 368 kts | 111° |
| 2026-05-07 16:09 | 52.09283 | 5.14583 | 21212 ft | 373 kts | 113° |
| 2026-05-07 16:09 | 52.08322 | 5.18510 | 21853 ft | 376 kts | 114° |
| 2026-05-07 16:09 | 52.07336 | 5.22472 | 22459 ft | 380 kts | 114° |
| 2026-05-07 16:09 | 52.06332 | 5.26504 | 22696 ft | 386 kts | 114° |
| 2026-05-07 16:10 | 52.05321 | 5.30470 | 23419 ft | 378 kts | 114° |
| 2026-05-07 16:10 | 52.04334 | 5.34452 | 24023 ft | 382 kts | 114° |
| 2026-05-07 16:10 | 52.03346 | 5.38502 | 24481 ft | 389 kts | 114° |
| 2026-05-07 16:10 | 52.02333 | 5.42616 | 24924 ft | 395 kts | 113° |
| 2026-05-07 16:11 | 52.01337 | 5.46768 | 25436 ft | 400 kts | 112° |
| 2026-05-07 16:11 | 52.00324 | 5.50985 | 26011 ft | 402 kts | 113° |
| 2026-05-07 16:11 | 51.99273 | 5.55211 | 26554 ft | 404 kts | 114° |
| 2026-05-07 16:11 | 51.98180 | 5.59429 | 27061 ft | 407 kts | 114° |
| 2026-05-07 16:12 | 51.97072 | 5.63612 | 27538 ft | 410 kts | 115° |
| 2026-05-07 16:12 | 51.95941 | 5.67874 | 27999 ft | 413 kts | 115° |
| 2026-05-07 16:12 | 51.94817 | 5.72112 | 28454 ft | 416 kts | 115° |
| 2026-05-07 16:12 | 51.93672 | 5.76435 | 28915 ft | 418 kts | 115° |
| 2026-05-07 16:13 | 51.92512 | 5.80789 | 29356 ft | 421 kts | 115° |
| 2026-05-07 16:13 | 51.91341 | 5.85155 | 29792 ft | 424 kts | 115° |
| 2026-05-07 16:13 | 51.90154 | 5.89551 | 30203 ft | 426 kts | 115° |
| 2026-05-07 16:13 | 51.88961 | 5.93945 | 30491 ft | 430 kts | 115° |
| 2026-05-07 16:14 | 51.87752 | 5.98367 | 31023 ft | 424 kts | 115° |
| 2026-05-07 16:14 | 51.86570 | 6.02684 | 31785 ft | 413 kts | 115° |
| 2026-05-07 16:14 | 51.85208 | 6.06688 | 32544 ft | 399 kts | 128° |
| 2026-05-07 16:14 | 51.83480 | 6.10115 | 33373 ft | 386 kts | 132° |
| 2026-05-07 16:15 | 51.81740 | 6.13311 | 34162 ft | 373 kts | 134° |
| 2026-05-07 16:15 | 51.80023 | 6.16362 | 34816 ft | 361 kts | 134° |
| 2026-05-07 16:15 | 51.78331 | 6.19355 | 35074 ft | 363 kts | 134° |
| 2026-05-07 16:16 | 51.74911 | 6.25503 | 35094 ft | 379 kts | 133° |
| 2026-05-07 16:16 | 51.71354 | 6.32019 | 35146 ft | 395 kts | 133° |
| 2026-05-07 16:16 | 51.69507 | 6.35385 | 35028 ft | 407 kts | 133° |
| 2026-05-07 16:17 | 51.67573 | 6.38771 | 35080 ft | 412 kts | 137° |
| 2026-05-07 16:17 | 51.63202 | 6.45038 | 35062 ft | 429 kts | 139° |
| 2026-05-07 16:18 | 51.58900 | 6.51977 | 35039 ft | 445 kts | 134° |
| 2026-05-07 16:18 | 51.54638 | 6.59401 | 35031 ft | 458 kts | 135° |
| 2026-05-07 16:19 | 51.50200 | 6.66800 | 35046 ft | 460 kts | 135° |
| 2026-05-07 16:19 | 51.45740 | 6.74155 | 35040 ft | 459 kts | 135° |
| 2026-05-07 16:20 | 51.41300 | 6.81519 | 35042 ft | 459 kts | 135° |
| 2026-05-07 16:20 | 51.36871 | 6.88838 | 35038 ft | 460 kts | 135° |
| 2026-05-07 16:21 | 51.32407 | 6.96183 | 35044 ft | 461 kts | 135° |
| 2026-05-07 16:21 | 51.27933 | 7.03529 | 35049 ft | 461 kts | 135° |
| 2026-05-07 16:22 | 51.23460 | 7.10852 | 35051 ft | 461 kts | 135° |
| 2026-05-07 16:22 | 51.18979 | 7.18161 | 35049 ft | 462 kts | 135° |
| 2026-05-07 16:23 | 51.14565 | 7.25342 | 35051 ft | 462 kts | 135° |
| 2026-05-07 16:23 | 51.10067 | 7.32643 | 35043 ft | 462 kts | 135° |
| 2026-05-07 16:24 | 51.05554 | 7.39940 | 35046 ft | 462 kts | 135° |
| 2026-05-07 16:24 | 51.01043 | 7.47217 | 35051 ft | 462 kts | 135° |
| 2026-05-07 16:25 | 50.96519 | 7.54492 | 35052 ft | 462 kts | 135° |
| 2026-05-07 16:25 | 50.91996 | 7.61745 | 35054 ft | 463 kts | 135° |
| 2026-05-07 16:26 | 50.87471 | 7.68974 | 35048 ft | 462 kts | 135° |
| 2026-05-07 16:26 | 50.82951 | 7.76173 | 35051 ft | 462 kts | 136° |
| 2026-05-07 16:27 | 50.78289 | 7.83068 | 35046 ft | 462 kts | 139° |
| 2026-05-07 16:27 | 50.73530 | 7.89923 | 35050 ft | 462 kts | 138° |
| 2026-05-07 16:28 | 50.68760 | 7.96809 | 35053 ft | 462 kts | 138° |
| 2026-05-07 16:28 | 50.64095 | 8.03690 | 35050 ft | 462 kts | 137° |
| 2026-05-07 16:29 | 50.59271 | 8.10365 | 35069 ft | 461 kts | 146° |
| 2026-05-07 16:29 | 50.53902 | 8.15909 | 35042 ft | 461 kts | 149° |
| 2026-05-07 16:30 | 50.48463 | 8.21274 | 35048 ft | 461 kts | 148° |
| 2026-05-07 16:30 | 50.43049 | 8.26696 | 35054 ft | 462 kts | 148° |
| 2026-05-07 16:31 | 50.37647 | 8.32124 | 35048 ft | 461 kts | 148° |
| 2026-05-07 16:31 | 50.32219 | 8.37538 | 35062 ft | 463 kts | 148° |
| 2026-05-07 16:32 | 50.27136 | 8.43575 | 35074 ft | 464 kts | 138° |
| 2026-05-07 16:32 | 50.22503 | 8.50597 | 35042 ft | 464 kts | 136° |
| 2026-05-07 16:33 | 50.17906 | 8.57699 | 35040 ft | 464 kts | 136° |
| 2026-05-07 16:33 | 50.13251 | 8.64716 | 35049 ft | 464 kts | 137° |
| 2026-05-07 16:34 | 50.08610 | 8.71695 | 35046 ft | 464 kts | 137° |
| 2026-05-07 16:34 | 50.03958 | 8.78700 | 35045 ft | 465 kts | 137° |
| 2026-05-07 16:35 | 49.99330 | 8.85642 | 35046 ft | 465 kts | 137° |
| 2026-05-07 16:35 | 49.94670 | 8.92608 | 35054 ft | 465 kts | 137° |
| 2026-05-07 16:36 | 49.89997 | 8.99576 | 35052 ft | 465 kts | 137° |
| 2026-05-07 16:36 | 49.85339 | 9.06505 | 35043 ft | 465 kts | 137° |
| 2026-05-07 16:37 | 49.80689 | 9.13404 | 35063 ft | 467 kts | 137° |
| 2026-05-07 16:37 | 49.75990 | 9.20351 | 35049 ft | 466 kts | 137° |
| 2026-05-07 16:38 | 49.71315 | 9.27243 | 35052 ft | 467 kts | 137° |
| 2026-05-07 16:38 | 49.66636 | 9.34123 | 35047 ft | 466 kts | 137° |
| 2026-05-07 16:39 | 49.61930 | 9.41059 | 35050 ft | 467 kts | 134° |
| 2026-05-07 16:39 | 49.57585 | 9.48495 | 35030 ft | 468 kts | 132° |
| 2026-05-07 16:40 | 49.53336 | 9.56132 | 35049 ft | 469 kts | 132° |
| 2026-05-07 16:40 | 49.49057 | 9.63686 | 35049 ft | 468 kts | 133° |
| 2026-05-07 16:41 | 49.44748 | 9.71208 | 35049 ft | 468 kts | 133° |
| 2026-05-07 16:41 | 49.40475 | 9.78682 | 35050 ft | 468 kts | 133° |
| 2026-05-07 16:42 | 49.36155 | 9.86219 | 34923 ft | 460 kts | 133° |
| 2026-05-07 16:42 | 49.34082 | 9.89813 | 34873 ft | 436 kts | 133° |
| 2026-05-07 16:42 | 49.32114 | 9.93215 | 34462 ft | 419 kts | 133° |
| 2026-05-07 16:42 | 49.30225 | 9.96475 | 34015 ft | 412 kts | 133° |
| 2026-05-07 16:43 | 49.28317 | 9.99759 | 33426 ft | 409 kts | 133° |
| 2026-05-07 16:43 | 49.26426 | 10.03013 | 32846 ft | 413 kts | 133° |
| 2026-05-07 16:43 | 49.24505 | 10.06317 | 32352 ft | 416 kts | 133° |
| 2026-05-07 16:43 | 49.22567 | 10.09651 | 31697 ft | 420 kts | 133° |
| 2026-05-07 16:44 | 49.20637 | 10.12968 | 31217 ft | 418 kts | 133° |
| 2026-05-07 16:44 | 49.18699 | 10.16295 | 30622 ft | 417 kts | 133° |
| 2026-05-07 16:44 | 49.16767 | 10.19600 | 30083 ft | 417 kts | 133° |
| 2026-05-07 16:44 | 49.14825 | 10.22910 | 29541 ft | 416 kts | 133° |
| 2026-05-07 16:45 | 49.12875 | 10.26212 | 28946 ft | 422 kts | 134° |
| 2026-05-07 16:45 | 49.10858 | 10.29489 | 28461 ft | 423 kts | 135° |
| 2026-05-07 16:45 | 49.08809 | 10.32735 | 27860 ft | 425 kts | 135° |
| 2026-05-07 16:45 | 49.06766 | 10.35968 | 27277 ft | 424 kts | 135° |
| 2026-05-07 16:46 | 49.04740 | 10.39206 | 26771 ft | 418 kts | 135° |
| 2026-05-07 16:46 | 49.02743 | 10.42424 | 26146 ft | 417 kts | 135° |
| 2026-05-07 16:46 | 49.00788 | 10.45580 | 25668 ft | 413 kts | 135° |
| 2026-05-07 16:46 | 48.98811 | 10.48750 | 25098 ft | 411 kts | 135° |
| 2026-05-07 16:47 | 48.96839 | 10.51884 | 24549 ft | 409 kts | 136° |
| 2026-05-07 16:47 | 48.94873 | 10.54997 | 24028 ft | 405 kts | 136° |
| 2026-05-07 16:47 | 48.92921 | 10.58084 | 23414 ft | 404 kts | 136° |
| 2026-05-07 16:47 | 48.91002 | 10.61117 | 22890 ft | 401 kts | 135° |
| 2026-05-07 16:48 | 48.89041 | 10.64218 | 21588 ft | 413 kts | 135° |
| 2026-05-07 16:48 | 48.87088 | 10.67310 | 21148 ft | 401 kts | 135° |
| 2026-05-07 16:48 | 48.85066 | 10.70088 | 20762 ft | 385 kts | 147° |
| 2026-05-07 16:48 | 48.83021 | 10.72597 | 20519 ft | 377 kts | 133° |
| 2026-05-07 16:49 | 48.81566 | 10.75911 | 20317 ft | 387 kts | 120° |
| 2026-05-07 16:49 | 48.80675 | 10.78326 | 20114 ft | 389 kts | 121° |
| 2026-05-07 16:49 | 48.78897 | 10.83025 | 19766 ft | 387 kts | 118° |
| 2026-05-07 16:49 | 48.77564 | 10.86569 | 19515 ft | 384 kts | 126° |
| 2026-05-07 16:50 | 48.75833 | 10.89615 | 19262 ft | 380 kts | 139° |
| 2026-05-07 16:50 | 48.73794 | 10.92122 | 19018 ft | 377 kts | 146° |
| 2026-05-07 16:50 | 48.72348 | 10.93680 | 18855 ft | 376 kts | 147° |
| 2026-05-07 16:50 | 48.70234 | 10.96007 | 18612 ft | 377 kts | 145° |
| 2026-05-07 16:51 | 48.68180 | 10.98487 | 18374 ft | 377 kts | 142° |
| 2026-05-07 16:51 | 48.66178 | 11.01044 | 18119 ft | 376 kts | 141° |
| 2026-05-07 16:51 | 48.64236 | 11.03601 | 17847 ft | 373 kts | 141° |
| 2026-05-07 16:51 | 48.62259 | 11.06177 | 17574 ft | 371 kts | 142° |
| 2026-05-07 16:52 | 48.60324 | 11.08624 | 17455 ft | 358 kts | 143° |
| 2026-05-07 16:52 | 48.58393 | 11.11004 | 16853 ft | 359 kts | 143° |
| 2026-05-07 16:52 | 48.56444 | 11.13384 | 16355 ft | 361 kts | 144° |
| 2026-05-07 16:52 | 48.54541 | 11.15707 | 15814 ft | 340 kts | 144° |
| 2026-05-07 16:53 | 48.52737 | 11.17903 | 15326 ft | 331 kts | 144° |
| 2026-05-07 16:53 | 48.50942 | 11.20049 | 14854 ft | 327 kts | 144° |
| 2026-05-07 16:53 | 48.49200 | 11.22233 | 14359 ft | 325 kts | 141° |
| 2026-05-07 16:53 | 48.47541 | 11.24538 | 13870 ft | 323 kts | 139° |
| 2026-05-07 16:54 | 48.45927 | 11.26875 | 13330 ft | 321 kts | 139° |
| 2026-05-07 16:54 | 48.44313 | 11.29177 | 12805 ft | 317 kts | 140° |
| 2026-05-07 16:54 | 48.42757 | 11.31524 | 12273 ft | 317 kts | 131° |
| 2026-05-07 16:54 | 48.41747 | 11.34476 | 11744 ft | 320 kts | 106° |
| 2026-05-07 16:55 | 48.41608 | 11.37800 | 11246 ft | 319 kts | 86° |
| 2026-05-07 16:55 | 48.41900 | 11.41104 | 10762 ft | 318 kts | 79° |
| 2026-05-07 16:55 | 48.42318 | 11.44358 | 10279 ft | 316 kts | 79° |
| 2026-05-07 16:55 | 48.42642 | 11.47630 | 9758 ft | 315 kts | 83° |
| 2026-05-07 16:56 | 48.42851 | 11.50905 | 9231 ft | 314 kts | 86° |
| 2026-05-07 16:56 | 48.43013 | 11.54181 | 8722 ft | 312 kts | 85° |
| 2026-05-07 16:56 | 48.43441 | 11.60569 | 7933 ft | 301 kts | 83° |
| 2026-05-07 16:57 | 48.43700 | 11.63635 | 7699 ft | 292 kts | 82° |
| 2026-05-07 16:57 | 48.43952 | 11.66657 | 7501 ft | 289 kts | 83° |
| 2026-05-07 16:57 | 48.44191 | 11.69691 | 7274 ft | 292 kts | 83° |
| 2026-05-07 16:57 | 48.44417 | 11.72740 | 7046 ft | 292 kts | 83° |
| 2026-05-07 16:58 | 48.44636 | 11.75761 | 6826 ft | 290 kts | 83° |
| 2026-05-07 16:58 | 48.44858 | 11.78783 | 6612 ft | 288 kts | 83° |
| 2026-05-07 16:58 | 48.45083 | 11.81781 | 6375 ft | 288 kts | 83° |
| 2026-05-07 16:58 | 48.45307 | 11.84761 | 6137 ft | 286 kts | 83° |
| 2026-05-07 16:59 | 48.45528 | 11.87703 | 5921 ft | 283 kts | 83° |
| 2026-05-07 16:59 | 48.45747 | 11.90643 | 5672 ft | 279 kts | 83° |
| 2026-05-07 16:59 | 48.45954 | 11.93451 | 5444 ft | 271 kts | 83° |
| 2026-05-07 16:59 | 48.46160 | 11.96266 | 5217 ft | 269 kts | 83° |
| 2026-05-07 17:00 | 48.46367 | 11.99080 | 5019 ft | 270 kts | 82° |
| 2026-05-07 17:00 | 48.46575 | 12.01882 | 5048 ft | 271 kts | 83° |
| 2026-05-07 17:00 | 48.46781 | 12.04706 | 5057 ft | 272 kts | 83° |
| 2026-05-07 17:00 | 48.46974 | 12.07422 | 5085 ft | 254 kts | 83° |
| 2026-05-07 17:01 | 48.47158 | 12.09980 | 5077 ft | 244 kts | 83° |
| 2026-05-07 17:01 | 48.47343 | 12.12558 | 5001 ft | 245 kts | 82° |
| 2026-05-07 17:01 | 48.47529 | 12.15120 | 4998 ft | 244 kts | 83° |
| 2026-05-07 17:01 | 48.47703 | 12.17565 | 4980 ft | 224 kts | 83° |
| 2026-05-07 17:02 | 48.47761 | 12.19813 | 4896 ft | 208 kts | 97° |
| 2026-05-07 17:02 | 48.47308 | 12.21822 | 4816 ft | 202 kts | 124° |
| 2026-05-07 17:02 | 48.46316 | 12.23206 | 5178 ft | 195 kts | 155° |
| 2026-05-07 17:02 | 48.44988 | 12.23808 | 5281 ft | 201 kts | 182° |
| 2026-05-07 17:03 | 48.43665 | 12.23401 | 5198 ft | 193 kts | 210° |
| 2026-05-07 17:03 | 48.42660 | 12.22097 | 4895 ft | 187 kts | 242° |
| 2026-05-07 17:03 | 48.42063 | 12.20461 | 4984 ft | 180 kts | 243° |
| 2026-05-07 17:03 | 48.41394 | 12.18822 | 5060 ft | 187 kts | 239° |
| 2026-05-07 17:04 | 48.40668 | 12.17214 | 5050 ft | 199 kts | 238° |
| 2026-05-07 17:04 | 48.39890 | 12.15312 | 5115 ft | 224 kts | 249° |
| 2026-05-07 17:04 | 48.39637 | 12.12988 | 5177 ft | 230 kts | 259° |
| 2026-05-07 17:04 | 48.38984 | 12.10817 | 5134 ft | 222 kts | 235° |
| 2026-05-07 17:05 | 48.37974 | 12.09143 | 5020 ft | 211 kts | 228° |
| 2026-05-07 17:05 | 48.36952 | 12.07641 | 4937 ft | 204 kts | 232° |
| 2026-05-07 17:05 | 48.36363 | 12.05724 | 4641 ft | 202 kts | 261° |
| 2026-05-07 17:05 | 48.36269 | 12.03635 | 4474 ft | 201 kts | 268° |
| 2026-05-07 17:06 | 48.36091 | 12.01567 | 4263 ft | 194 kts | 261° |
| 2026-05-07 17:06 | 48.35910 | 11.99695 | 4050 ft | 182 kts | 265° |
| 2026-05-07 17:06 | 48.35797 | 11.97830 | 3835 ft | 176 kts | 266° |
| 2026-05-07 17:06 | 48.35655 | 11.96002 | 3623 ft | 176 kts | 265° |
| 2026-05-07 17:07 | 48.35509 | 11.94131 | 3353 ft | 179 kts | 266° |
| 2026-05-07 17:07 | 48.35384 | 11.92409 | 3100 ft | 156 kts | 265° |
| 2026-05-07 17:07 | 48.35269 | 11.90846 | 2906 ft | 150 kts | 266° |
| 2026-05-07 17:07 | 48.35151 | 11.89284 | 2729 ft | 147 kts | 265° |
| 2026-05-07 17:08 | 48.35020 | 11.87762 | 2521 ft | 150 kts | 265° |
| 2026-05-07 17:08 | 48.34911 | 11.86200 | 2295 ft | 150 kts | 268° |
| 2026-05-07 17:08 | 48.34804 | 11.84639 | 2095 ft | 153 kts | 265° |
| 2026-05-07 17:08 | 48.34669 | 11.83055 | 1867 ft | 150 kts | 266° |
| 2026-05-07 17:09 | 48.34550 | 11.81514 | 1680 ft | 148 kts | 265° |
| 2026-05-07 17:09 | 48.34441 | 11.79982 | 1497 ft | 141 kts | 266° |
| 2026-05-07 17:09 | 48.34347 | 11.78717 | 1478 ft | 104 kts | 263° |
| 2026-05-07 17:09 | 48.34284 | 11.77898 | 1484 ft | 63 kts | 264° |
| 2026-05-07 17:10 | 48.34257 | 11.77299 | 1484 ft | 50 kts | 282° |
| 2026-05-07 17:10 | 48.34346 | 11.76954 | 1482 ft | 16 kts | 293° |
| 2026-05-07 17:10 | 48.34359 | 11.76910 | 1480 ft | 0 kts | 294° |
| 2026-05-07 17:11 | 48.34359 | 11.76907 | 1482 ft | 1 kts | 294° |
| 2026-05-07 17:11 | 48.34363 | 11.76894 | 1478 ft | 2 kts | 294° |
| 2026-05-07 17:12 | 48.34371 | 11.76868 | 1482 ft | 4 kts | 293° |
| 2026-05-07 17:12 | 48.34385 | 11.76816 | 1480 ft | 8 kts | 293° |
| 2026-05-07 17:12 | 48.34424 | 11.76733 | 1475 ft | 11 kts | 322° |
| 2026-05-07 17:12 | 48.34496 | 11.76698 | 1475 ft | 11 kts | 352° |
| 2026-05-07 17:13 | 48.34569 | 11.76725 | 1478 ft | 11 kts | 57° |
| 2026-05-07 17:13 | 48.34583 | 11.76853 | 1477 ft | 14 kts | 83° |
| 2026-05-07 17:13 | 48.34595 | 11.77004 | 1474 ft | 16 kts | 83° |
| 2026-05-07 17:13 | 48.34609 | 11.77182 | 1484 ft | 18 kts | 83° |
| 2026-05-07 17:14 | 48.34624 | 11.77370 | 1474 ft | 19 kts | 83° |
| 2026-05-07 17:14 | 48.34639 | 11.77567 | 1477 ft | 19 kts | 83° |
| 2026-05-07 17:14 | 48.34654 | 11.77772 | 1474 ft | 20 kts | 83° |
| 2026-05-07 17:14 | 48.34682 | 11.77885 | 1478 ft | 10 kts | 34° |
| 2026-05-07 17:15 | 48.34708 | 11.77891 | 1484 ft | 0 kts | 359° |
| 2026-05-07 17:16 | 48.34734 | 11.77890 | 1519 ft | 0 kts | 359° |
| 2026-05-07 17:16 | 48.34836 | 11.77879 | 1484 ft | 0 kts | 359° |
| 2026-05-07 17:16 | 48.35506 | 11.77994 | 1474 ft | 2 kts | 139° |
| 2026-05-07 17:17 | 48.35447 | 11.78006 | 1482 ft | 0 kts | 139° |
| 2026-05-07 17:17 | 48.34899 | 11.77956 | 1616 ft | 0 kts | 139° |
| 2026-05-07 17:17 | 48.34874 | 11.77911 | 1480 ft | 0 kts | 139° |
| 2026-05-07 17:17 | 48.34868 | 11.77936 | 1484 ft | 7 kts | 101° |
| 2026-05-07 17:18 | 48.34872 | 11.78014 | 1480 ft | 8 kts | 83° |
| 2026-05-07 17:18 | 48.34876 | 11.78065 | 1484 ft | 0 kts | 83° |
| 2026-05-07 17:18 | 48.34880 | 11.78109 | 1484 ft | 11 kts | 83° |
| 2026-05-07 17:18 | 48.34918 | 11.78226 | 1484 ft | 13 kts | 24° |
| 2026-05-07 17:19 | 48.35010 | 11.78219 | 1474 ft | 10 kts | 354° |
| 2026-05-07 17:19 | 48.35036 | 11.78249 | 1479 ft | 5 kts | 73° |
| 2026-05-07 17:19 | 48.35042 | 11.78306 | 1478 ft | 6 kts | 83° |
| 2026-05-07 17:19 | 48.35045 | 11.78345 | 1484 ft | 4 kts | 83° |
| 2026-05-07 17:20 | 48.35045 | 11.78353 | 1484 ft | 0 kts | 83° |